Time;durP1;ratioP1;P1;durP2;ratioP2;P2;SDS_P1;SDS_P2;PMS_P1;PMS_P2;Temp;Humidity;BMP_temperature;BMP_pressure;BME280_temperature;BME280_humidity;BME280_pressure;Samples;Min_cycle;Max_cycle;Signal;HPM_P1;HPM_P2
2022/03/19 00:00:42;;;;;;;;;;;;;;;16.43;53.36;104184.50;1014102;29;1586;-72
2022/03/19 00:01:33;;;;;;;;;;;;;;;16.44;53.82;104182.69;1016920;29;577;-72
2022/03/19 00:02:23;;;;;;;;;;;;;;;16.43;53.61;104187.19;1016927;29;1316;-70
2022/03/19 00:03:14;;;;;;;;;;;;;;;16.43;53.48;104186.31;1017607;29;674;-71
2022/03/19 00:04:04;;;;;;;;;;;;;;;16.42;53.80;104181.88;1017554;29;658;-71
2022/03/19 00:04:54;;;;;;;;;;;;;;;16.42;53.66;104180.06;1017590;29;643;-72
2022/03/19 00:05:45;;;;;;;;;;;;;;;16.43;53.66;104186.31;1017502;29;646;-72
2022/03/19 00:06:35;;;;;;;;;;;;;;;16.41;53.46;104181.00;1017594;29;722;-72
2022/03/19 00:07:27;;;;;;;;;;;;;;;16.42;53.75;104193.50;1017525;29;844;-71
2022/03/19 00:08:17;;;;;;;;;;;;;;;16.41;53.67;104189.06;1016984;29;2035;-72
2022/03/19 00:09:07;;;;;;;;;;;;;;;16.41;53.81;104185.50;1015848;29;1638;-71
2022/03/19 00:09:58;;;;;;;;;;;;;;;16.41;53.83;104191.75;1016912;29;740;-72
2022/03/19 00:10:48;;;;;;;;;;;;;;;16.41;53.67;104185.50;1017000;29;652;-72
2022/03/19 00:11:39;;;;;;;;;;;;;;;16.41;53.48;104180.09;1017165;29;647;-72
2022/03/19 00:12:30;;;;;;;;;;;;;;;16.40;53.56;104192.69;1017772;29;672;-72
2022/03/19 00:13:20;;;;;;;;;;;;;;;16.39;53.67;104181.97;1016315;29;1611;-72
2022/03/19 00:14:12;;;;;;;;;;;;;;;16.39;53.77;104190.03;1016661;29;608;-72
2022/03/19 00:15:02;;;;;;;;;;;;;;;16.39;53.84;104188.25;1017803;29;701;-73
2022/03/19 00:15:53;;;;;;;;;;;;;;;16.38;53.71;104189.16;1016555;29;1638;-72
2022/03/19 00:16:43;;;;;;;;;;;;;;;16.38;53.47;104194.56;1017321;29;933;-72
2022/03/19 00:17:33;;;;;;;;;;;;;;;16.39;53.77;104190.03;1017566;29;686;-72
2022/03/19 00:18:24;;;;;;;;;;;;;;;16.39;53.69;104187.34;1016909;29;639;-72
2022/03/19 00:19:15;;;;;;;;;;;;;;;16.38;53.70;104183.78;1016979;29;599;-73
2022/03/19 00:20:05;;;;;;;;;;;;;;;16.36;53.70;104193.72;1016967;29;634;-72
2022/03/19 00:20:55;;;;;;;;;;;;;;;16.37;53.72;104197.28;1017017;29;676;-72
2022/03/19 00:21:46;;;;;;;;;;;;;;;16.37;53.84;104190.09;1017022;29;655;-72
2022/03/19 00:22:36;;;;;;;;;;;;;;;16.37;53.77;104194.59;1016906;29;631;-72
2022/03/19 00:23:27;;;;;;;;;;;;;;;16.37;54.06;104195.50;1016927;29;627;-72
2022/03/19 00:24:17;;;;;;;;;;;;;;;16.36;53.79;104191.03;1016828;29;1642;-70
2022/03/19 00:25:08;;;;;;;;;;;;;;;16.36;53.72;104190.16;1017005;29;637;-70
2022/03/19 00:25:58;;;;;;;;;;;;;;;16.36;53.70;104192.84;1016942;29;620;-70
2022/03/19 00:26:49;;;;;;;;;;;;;;;16.35;53.91;104191.97;1016995;29;635;-71
2022/03/19 00:27:42;;;;;;;;;;;;;;;16.35;53.68;104188.41;1016517;29;682;-70
2022/03/19 00:28:33;;;;;;;;;;;;;;;16.35;53.91;104188.41;1016649;29;1883;-70
2022/03/19 00:29:23;;;;;;;;;;;;;;;16.35;53.82;104188.41;1017567;29;657;-71
2022/03/19 00:30:14;;;;;;;;;;;;;;;16.34;54.02;104184.81;1016628;29;595;-71
2022/03/19 00:31:04;;;;;;;;;;;;;;;16.33;53.60;104192.03;1017634;29;603;-75
2022/03/19 00:31:54;;;;;;;;;;;;;;;16.33;53.53;104197.41;1016901;29;724;-75
2022/03/19 00:32:45;;;;;;;;;;;;;;;16.34;53.71;104192.91;1016726;29;1631;-75
2022/03/19 00:33:35;;;;;;;;;;;;;;;16.32;53.86;104190.25;1016769;29;1611;-76
2022/03/19 00:34:26;;;;;;;;;;;;;;;16.32;53.65;104192.94;1016595;29;572;-75
2022/03/19 00:35:16;;;;;;;;;;;;;;;16.31;53.91;104188.50;1015995;29;588;-74
2022/03/19 00:36:07;;;;;;;;;;;;;;;16.32;53.56;104189.38;1017017;29;713;-74
2022/03/19 00:36:58;;;;;;;;;;;;;;;16.31;53.73;104193.88;1016917;29;579;-73
2022/03/19 00:37:48;;;;;;;;;;;;;;;16.31;53.73;104196.56;1016908;29;623;-75
2022/03/19 00:38:39;;;;;;;;;;;;;;;16.30;53.66;104186.75;1016896;29;682;-75
2022/03/19 00:39:29;;;;;;;;;;;;;;;16.30;53.49;104186.75;1016774;29;1595;-75
2022/03/19 00:40:19;;;;;;;;;;;;;;;16.31;53.60;104190.31;1016911;29;615;-74
2022/03/19 00:41:10;;;;;;;;;;;;;;;16.30;53.85;104188.59;1016957;29;697;-74
2022/03/19 00:42:00;;;;;;;;;;;;;;;16.30;53.79;104192.13;1016493;29;640;-74
2022/03/19 00:42:51;;;;;;;;;;;;;;;16.30;53.64;104191.28;1016875;29;883;-74
2022/03/19 00:43:41;;;;;;;;;;;;;;;16.29;53.74;104194.91;1016543;29;1689;-74
2022/03/19 00:44:32;;;;;;;;;;;;;;;16.30;53.56;104192.13;1016815;29;1595;-75
2022/03/19 00:45:23;;;;;;;;;;;;;;;16.28;53.73;104191.31;1017327;29;754;-75
2022/03/19 00:46:15;;;;;;;;;;;;;;;16.29;53.76;104194.91;1017189;29;662;-76
2022/03/19 00:47:05;;;;;;;;;;;;;;;16.29;54.19;104193.09;1017014;29;1587;-76
2022/03/19 00:47:56;;;;;;;;;;;;;;;16.28;53.80;104204.78;1013570;29;666;-76
2022/03/19 00:48:46;;;;;;;;;;;;;;;16.28;53.62;104190.44;1013691;29;623;-76
2022/03/19 00:49:37;;;;;;;;;;;;;;;16.28;53.55;104198.53;1013450;29;759;-76
2022/03/19 00:50:27;;;;;;;;;;;;;;;16.28;53.98;104198.53;1012049;29;630;-76
2022/03/19 00:51:17;;;;;;;;;;;;;;;16.28;53.61;104193.13;1013591;29;654;-76
2022/03/19 00:52:08;;;;;;;;;;;;;;;16.26;53.86;104182.44;1012092;29;752;-76
2022/03/19 00:52:58;;;;;;;;;;;;;;;16.26;53.77;104190.50;1012162;29;735;-76
2022/03/19 00:53:49;;;;;;;;;;;;;;;16.27;53.93;104189.56;1013914;29;722;-76
2022/03/19 00:54:39;;;;;;;;;;;;;;;16.27;53.79;104186.00;1014260;29;674;-76
2022/03/19 00:55:30;;;;;;;;;;;;;;;16.26;53.65;104184.25;1012662;29;581;-76
2022/03/19 00:56:20;;;;;;;;;;;;;;;16.26;53.75;104189.63;1014249;29;675;-75
2022/03/19 00:57:10;;;;;;;;;;;;;;;16.26;53.88;104184.25;1012651;29;914;-75
2022/03/19 00:58:01;;;;;;;;;;;;;;;16.26;53.45;104187.81;1012702;29;652;-75
2022/03/19 00:58:51;;;;;;;;;;;;;;;16.26;53.64;104179.72;1013614;29;1576;-76
2022/03/19 00:59:42;;;;;;;;;;;;;;;16.25;53.74;104185.16;1018137;29;637;-75
2022/03/19 01:00:32;;;;;;;;;;;;;;;16.25;53.58;104188.75;1017552;29;713;-77
2022/03/19 01:01:23;;;;;;;;;;;;;;;16.24;53.58;104186.97;1018101;29;596;-76
2022/03/19 01:02:13;;;;;;;;;;;;;;;16.24;54.03;104184.28;1018128;29;635;-76
2022/03/19 01:03:03;;;;;;;;;;;;;;;16.25;53.91;104182.47;1018248;29;665;-76
2022/03/19 01:03:54;;;;;;;;;;;;;;;16.24;53.81;104183.41;1018087;29;729;-76
2022/03/19 01:04:45;;;;;;;;;;;;;;;16.24;53.56;104184.28;1017537;29;653;-76
2022/03/19 01:05:35;;;;;;;;;;;;;;;16.23;53.82;104189.72;1018114;29;651;-76
2022/03/19 01:06:26;;;;;;;;;;;;;;;16.22;54.02;104188.84;1018093;29;750;-76
2022/03/19 01:07:16;;;;;;;;;;;;;;;16.22;54.07;104182.59;1018235;29;682;-75
2022/03/19 01:08:07;;;;;;;;;;;;;;;16.23;53.82;104185.22;1017931;29;1918;-75
2022/03/19 01:08:58;;;;;;;;;;;;;;;16.21;53.97;104183.50;1017080;29;677;-76
2022/03/19 01:09:48;;;;;;;;;;;;;;;16.21;53.85;104184.38;1018085;29;698;-76
2022/03/19 01:10:39;;;;;;;;;;;;;;;16.20;53.67;104182.63;1016905;29;705;-75
2022/03/19 01:11:29;;;;;;;;;;;;;;;16.21;53.81;104178.13;1018119;29;726;-75
2022/03/19 01:12:19;;;;;;;;;;;;;;;16.20;53.87;104179.94;1016974;29;684;-76
2022/03/19 01:13:10;;;;;;;;;;;;;;;16.20;53.87;104177.25;1017141;29;742;-75
2022/03/19 01:14:00;;;;;;;;;;;;;;;16.21;53.70;104181.69;1017645;29;710;-75
2022/03/19 01:14:51;;;;;;;;;;;;;;;16.20;53.75;104179.94;1017698;29;1634;-75
2022/03/19 01:15:41;;;;;;;;;;;;;;;16.20;53.76;104179.94;1017782;29;686;-76
2022/03/19 01:16:32;;;;;;;;;;;;;;;16.19;53.76;104177.31;1017503;29;671;-76
2022/03/19 01:17:22;;;;;;;;;;;;;;;16.19;53.97;104172.81;1017388;29;1702;-76
2022/03/19 01:18:13;;;;;;;;;;;;;;;16.20;53.71;104176.38;1017583;29;606;-76
2022/03/19 01:19:03;;;;;;;;;;;;;;;16.18;53.87;104172.84;1013365;29;616;-76
2022/03/19 01:19:53;;;;;;;;;;;;;;;16.18;53.84;104176.41;1013383;29;632;-76
2022/03/19 01:20:44;;;;;;;;;;;;;;;16.17;53.94;104177.34;1013537;29;694;-76
2022/03/19 01:21:35;;;;;;;;;;;;;;;16.17;54.08;104177.34;1013620;29;694;-75
2022/03/19 01:22:26;;;;;;;;;;;;;;;16.17;54.04;104174.66;1013074;29;667;-75
2022/03/19 01:23:16;;;;;;;;;;;;;;;16.17;53.97;104171.97;1013052;29;703;-75
2022/03/19 01:24:07;;;;;;;;;;;;;;;16.16;54.18;104172.91;1013154;29;693;-74
2022/03/19 01:25:00;;;;;;;;;;;;;;;16.16;53.77;104172.03;1014152;29;651;-74
2022/03/19 01:25:50;;;;;;;;;;;;;;;16.16;53.90;104167.53;1013189;29;687;-74
2022/03/19 01:26:41;;;;;;;;;;;;;;;16.15;53.83;104165.75;1014161;29;576;-74
2022/03/19 01:27:31;;;;;;;;;;;;;;;16.15;53.75;104165.75;1014141;29;695;-75
2022/03/19 01:28:22;;;;;;;;;;;;;;;16.15;53.73;104170.25;1014091;29;1964;-74
2022/03/19 01:29:12;;;;;;;;;;;;;;;16.15;53.66;104164.88;1017755;29;682;-73
2022/03/19 01:30:03;;;;;;;;;;;;;;;16.14;53.85;104164.00;1017597;29;665;-73
2022/03/19 01:30:53;;;;;;;;;;;;;;;16.14;53.85;104164.00;1017405;29;1595;-73
2022/03/19 01:31:43;;;;;;;;;;;;;;;16.14;54.04;104160.44;1017543;29;619;-73
2022/03/19 01:32:35;;;;;;;;;;;;;;;16.14;53.72;104163.13;1018115;29;725;-73
2022/03/19 01:33:25;;;;;;;;;;;;;;;16.12;53.65;104163.19;1017999;29;666;-73
2022/03/19 01:34:16;;;;;;;;;;;;;;;16.12;53.56;104157.78;1017563;29;652;-74
2022/03/19 01:35:06;;;;;;;;;;;;;;;16.12;53.88;104160.47;1017547;29;702;-74
2022/03/19 01:35:56;;;;;;;;;;;;;;;16.13;53.83;104166.75;1017555;29;734;-74
2022/03/19 01:36:47;;;;;;;;;;;;;;;16.12;53.66;104163.19;1018066;29;646;-74
2022/03/19 01:37:37;;;;;;;;;;;;;;;16.12;53.79;104165.88;1017463;29;698;-74
2022/03/19 01:38:28;;;;;;;;;;;;;;;16.10;53.93;104165.06;1017926;29;1631;-73
2022/03/19 01:39:19;;;;;;;;;;;;;;;16.12;53.77;104163.19;1017001;29;721;-74
2022/03/19 01:40:10;;;;;;;;;;;;;;;16.10;53.84;104157.00;1017503;29;1602;-74
2022/03/19 01:41:00;;;;;;;;;;;;;;;16.11;53.93;104157.88;1017004;29;612;-76
2022/03/19 01:41:50;;;;;;;;;;;;;;;16.10;54.25;104159.69;1017367;29;618;-74
2022/03/19 01:42:41;;;;;;;;;;;;;;;16.10;53.88;104162.38;1017480;29;717;-74
2022/03/19 01:43:31;;;;;;;;;;;;;;;16.09;53.61;104160.63;1017037;29;1559;-74
2022/03/19 01:44:22;;;;;;;;;;;;;;;16.09;54.00;104163.31;1012733;29;751;-74
2022/03/19 01:45:12;;;;;;;;;;;;;;;16.10;53.99;104150.75;1013771;29;669;-74
2022/03/19 01:46:02;;;;;;;;;;;;;;;16.10;53.70;104156.13;1013410;29;707;-74
2022/03/19 01:46:53;;;;;;;;;;;;;;;16.08;54.18;104153.47;1015691;29;1592;-74
2022/03/19 01:47:43;;;;;;;;;;;;;;;16.09;53.80;104166.00;1017395;29;706;-74
2022/03/19 01:48:34;;;;;;;;;;;;;;;16.08;53.96;104148.09;1017391;29;1902;-74
2022/03/19 01:49:24;;;;;;;;;;;;;;;16.08;53.92;104156.16;1017370;29;1619;-74
2022/03/19 01:50:15;;;;;;;;;;;;;;;16.08;53.75;104157.97;1017527;29;618;-73
2022/03/19 01:51:06;;;;;;;;;;;;;;;16.08;53.58;104149.91;1017499;29;607;-74
2022/03/19 01:51:56;;;;;;;;;;;;;;;16.07;54.01;104151.72;1017367;29;776;-74
2022/03/19 01:52:47;;;;;;;;;;;;;;;16.07;53.73;104156.22;1017388;29;678;-74
2022/03/19 01:53:37;;;;;;;;;;;;;;;16.07;53.55;104151.72;1017486;29;639;-74
2022/03/19 01:54:28;;;;;;;;;;;;;;;16.07;54.15;104153.53;1017259;29;631;-75
2022/03/19 01:55:18;;;;;;;;;;;;;;;16.08;53.90;104153.47;1017431;29;705;-75
2022/03/19 01:56:09;;;;;;;;;;;;;;;16.07;53.87;104151.72;1017441;29;639;-75
2022/03/19 01:56:59;;;;;;;;;;;;;;;16.06;54.20;104146.38;1017505;29;624;-74
2022/03/19 01:57:50;;;;;;;;;;;;;;;16.06;54.13;104154.47;1017452;29;669;-75
2022/03/19 01:58:40;;;;;;;;;;;;;;;16.05;54.35;104158.09;1017183;29;1599;-75
2022/03/19 01:59:30;;;;;;;;;;;;;;;16.05;54.08;104161.66;1018076;29;655;-74
2022/03/19 02:00:21;;;;;;;;;;;;;;;16.05;53.81;104152.69;1017405;29;774;-73
2022/03/19 02:01:12;;;;;;;;;;;;;;;16.05;53.73;104156.28;1018022;29;670;-71
2022/03/19 02:02:02;;;;;;;;;;;;;;;16.05;53.89;104147.31;1017895;29;686;-75
2022/03/19 02:02:53;;;;;;;;;;;;;;;16.04;53.89;104150.94;1017765;29;1698;-74
2022/03/19 02:03:43;;;;;;;;;;;;;;;16.04;54.14;104148.25;1017394;29;714;-74
2022/03/19 02:04:33;;;;;;;;;;;;;;;16.04;53.98;104148.25;1016963;29;1587;-74
2022/03/19 02:05:24;;;;;;;;;;;;;;;16.03;53.94;104151.88;1017027;29;751;-73
2022/03/19 02:06:14;;;;;;;;;;;;;;;16.02;54.10;104148.31;1017466;29;694;-74
2022/03/19 02:07:05;;;;;;;;;;;;;;;16.02;54.04;104142.94;1017050;29;629;-73
2022/03/19 02:07:55;;;;;;;;;;;;;;;16.02;54.12;104151.00;1016356;29;1398;-74
2022/03/19 02:08:47;;;;;;;;;;;;;;;16.02;53.86;104145.63;1017278;29;1591;-74
2022/03/19 02:09:37;;;;;;;;;;;;;;;16.02;53.96;104142.94;1017979;29;639;-74
2022/03/19 02:10:29;;;;;;;;;;;;;;;16.01;54.07;104141.16;1017894;29;631;-73
2022/03/19 02:11:20;;;;;;;;;;;;;;;16.01;54.10;104141.16;1017379;29;576;-73
2022/03/19 02:12:11;;;;;;;;;;;;;;;16.01;53.99;104148.34;1017913;29;702;-75
2022/03/19 02:13:02;;;;;;;;;;;;;;;16.02;53.98;104147.44;1016705;29;662;-73
2022/03/19 02:13:52;;;;;;;;;;;;;;;16.02;53.98;104151.00;1016500;29;1413;-73
2022/03/19 02:14:44;;;;;;;;;;;;;;;16.02;54.00;104137.53;1017070;29;642;-74
2022/03/19 02:15:34;;;;;;;;;;;;;;;16.01;53.50;104143.84;1017342;29;633;-73
2022/03/19 02:16:25;;;;;;;;;;;;;;;16.01;54.24;104146.53;1017383;29;717;-73
2022/03/19 02:17:15;;;;;;;;;;;;;;;16.02;53.94;104142.03;1017199;29;1602;-73
2022/03/19 02:18:06;;;;;;;;;;;;;;;16.01;53.91;104140.28;1016813;29;682;-73
2022/03/19 02:18:56;;;;;;;;;;;;;;;16.01;53.75;104142.97;1017069;29;1666;-73
2022/03/19 02:19:48;;;;;;;;;;;;;;;16.00;54.17;104144.78;1017298;29;570;-73
2022/03/19 02:20:39;;;;;;;;;;;;;;;15.98;54.04;104135.88;1017337;29;674;-73
2022/03/19 02:21:29;;;;;;;;;;;;;;;15.98;54.16;104142.16;1017010;29;695;-73
2022/03/19 02:22:20;;;;;;;;;;;;;;;15.97;54.13;104140.38;1017651;29;2018;-74
2022/03/19 02:25:36;;;;;;;;;;;;;;;15.97;53.86;104139.50;1017807;29;702;-74
2022/03/19 02:26:26;;;;;;;;;;;;;;;15.97;53.94;104144.88;1017332;29;694;-74
2022/03/19 02:27:17;;;;;;;;;;;;;;;15.97;54.08;104142.19;1017080;29;1607;-74
2022/03/19 02:28:07;;;;;;;;;;;;;;;15.96;54.17;104140.44;1014006;29;666;-72
2022/03/19 02:28:57;;;;;;;;;;;;;;;15.97;53.86;104131.44;1013341;29;643;-74
2022/03/19 02:29:48;;;;;;;;;;;;;;;15.96;54.24;104144.00;1013811;29;635;-74
2022/03/19 02:30:39;;;;;;;;;;;;;;;15.95;54.34;104142.25;1013388;29;667;-74
2022/03/19 02:31:29;;;;;;;;;;;;;;;15.96;53.96;104143.13;1017410;29;745;-74
2022/03/19 02:32:19;;;;;;;;;;;;;;;15.96;54.17;104140.44;1016947;29;694;-75
2022/03/19 02:33:10;;;;;;;;;;;;;;;15.96;54.27;104137.75;1013474;29;628;-76
2022/03/19 02:34:00;;;;;;;;;;;;;;;15.95;54.09;104131.50;1013347;29;690;-75
2022/03/19 02:34:51;;;;;;;;;;;;;;;15.94;54.20;104129.72;1016104;29;1575;-75
2022/03/19 02:35:41;;;;;;;;;;;;;;;15.94;54.12;104134.25;1017144;29;652;-75
2022/03/19 02:36:32;;;;;;;;;;;;;;;15.95;54.22;104133.31;1017280;29;826;-76
2022/03/19 02:37:22;;;;;;;;;;;;;;;15.94;54.11;104131.56;1017295;29;733;-76
2022/03/19 02:38:12;;;;;;;;;;;;;;;15.93;53.83;104133.38;1016814;29;682;-76
2022/03/19 02:39:03;;;;;;;;;;;;;;;15.94;53.86;104139.66;1017198;29;626;-76
2022/03/19 02:39:53;;;;;;;;;;;;;;;15.92;54.01;104130.75;1017175;29;659;-76
2022/03/19 02:40:44;;;;;;;;;;;;;;;15.92;53.89;104137.00;1017196;29;651;-76
2022/03/19 02:41:34;;;;;;;;;;;;;;;15.92;54.20;104125.38;1017201;29;655;-76
2022/03/19 02:42:24;;;;;;;;;;;;;;;15.92;54.47;104130.75;1017250;29;713;-76
2022/03/19 02:43:15;;;;;;;;;;;;;;;15.92;54.13;104126.25;1016897;29;1532;-75
2022/03/19 02:44:05;;;;;;;;;;;;;;;15.92;54.23;104137.00;1016983;29;1467;-76
2022/03/19 02:44:56;;;;;;;;;;;;;;;15.92;54.09;104126.25;1017072;29;1725;-76
2022/03/19 02:45:46;;;;;;;;;;;;;;;15.91;54.40;104123.59;1017243;29;713;-76
2022/03/19 02:46:37;;;;;;;;;;;;;;;15.92;53.97;104125.38;1017225;29;663;-74
2022/03/19 02:47:27;;;;;;;;;;;;;;;15.91;53.90;104129.88;1017063;29;1649;-74
2022/03/19 02:48:18;;;;;;;;;;;;;;;15.91;54.06;104123.59;1017664;29;1895;-76
2022/03/19 02:49:08;;;;;;;;;;;;;;;15.91;54.02;104126.31;1017206;29;758;-76
2022/03/19 02:49:59;;;;;;;;;;;;;;;15.90;54.26;104120.03;1017720;29;662;-76
2022/03/19 02:50:49;;;;;;;;;;;;;;;15.90;54.34;104125.41;1017570;29;1650;-76
2022/03/19 02:51:39;;;;;;;;;;;;;;;15.90;54.32;104124.53;1016845;29;627;-77
2022/03/19 02:52:30;;;;;;;;;;;;;;;15.90;53.98;104119.16;1016446;29;648;-78
2022/03/19 02:53:20;;;;;;;;;;;;;;;15.89;54.06;104120.09;1017782;29;690;-76
2022/03/19 02:54:11;;;;;;;;;;;;;;;15.89;54.20;104120.97;1017178;29;658;-77
2022/03/19 02:55:01;;;;;;;;;;;;;;;15.88;54.16;104115.63;1017150;29;546;-77
2022/03/19 02:55:52;;;;;;;;;;;;;;;15.87;53.90;104114.75;1017152;29;714;-77
2022/03/19 02:56:42;;;;;;;;;;;;;;;15.87;54.17;104108.50;1017101;29;704;-76
2022/03/19 02:57:32;;;;;;;;;;;;;;;15.89;54.19;104120.09;1017221;29;702;-75
2022/03/19 02:58:23;;;;;;;;;;;;;;;15.87;53.85;104112.06;1017057;29;1673;-74
2022/03/19 02:59:13;;;;;;;;;;;;;;;15.86;54.41;104113.00;1017187;29;627;-73
2022/03/19 03:00:04;;;;;;;;;;;;;;;15.86;54.34;104106.75;1017212;29;575;-74
2022/03/19 03:00:54;;;;;;;;;;;;;;;15.85;54.00;104103.19;1017055;29;733;-73
2022/03/19 03:01:44;;;;;;;;;;;;;;;15.86;54.43;104102.25;1017103;29;694;-73
2022/03/19 03:02:35;;;;;;;;;;;;;;;15.85;54.35;104103.19;1017216;29;1156;-73
2022/03/19 03:03:26;;;;;;;;;;;;;;;15.85;54.14;104099.59;1017234;29;1709;-74
2022/03/19 03:04:16;;;;;;;;;;;;;;;15.85;54.19;104113.06;1017818;29;741;-74
2022/03/19 03:05:06;;;;;;;;;;;;;;;15.84;54.11;104098.72;1017135;29;638;-75
2022/03/19 03:05:57;;;;;;;;;;;;;;;15.85;53.95;104107.69;1017058;29;1670;-75
2022/03/19 03:06:47;;;;;;;;;;;;;;;15.85;53.93;104113.06;1017419;29;678;-75
2022/03/19 03:07:38;;;;;;;;;;;;;;;15.84;54.38;104097.84;1017504;29;628;-74
2022/03/19 03:08:28;;;;;;;;;;;;;;;15.83;53.97;104104.16;1017669;29;1969;-74
2022/03/19 03:09:18;;;;;;;;;;;;;;;15.83;54.23;104102.34;1016529;29;615;-74
2022/03/19 03:10:09;;;;;;;;;;;;;;;15.84;53.79;104101.41;1016624;29;633;-73
2022/03/19 03:10:59;;;;;;;;;;;;;;;15.84;54.13;104105.91;1013742;29;603;-72
2022/03/19 03:11:50;;;;;;;;;;;;;;;15.83;54.10;104101.47;1013296;29;707;-73
2022/03/19 03:12:40;;;;;;;;;;;;;;;15.83;53.83;104099.66;1013370;29;632;-74
2022/03/19 03:13:31;;;;;;;;;;;;;;;15.84;54.09;104105.91;1014866;29;1618;-73
2022/03/19 03:14:21;;;;;;;;;;;;;;;15.83;54.26;104096.09;1017074;29;1534;-73
2022/03/19 03:15:11;;;;;;;;;;;;;;;15.83;53.90;104098.78;1017680;29;712;-73
2022/03/19 03:16:02;;;;;;;;;;;;;;;15.83;54.26;104096.09;1017673;29;674;-72
2022/03/19 03:16:52;;;;;;;;;;;;;;;15.82;54.27;104105.97;1017670;29;669;-72
2022/03/19 03:17:43;;;;;;;;;;;;;;;15.80;54.08;104099.75;1017685;29;637;-72
2022/03/19 03:18:33;;;;;;;;;;;;;;;15.81;53.98;104096.13;1017768;29;603;-73
2022/03/19 03:19:23;;;;;;;;;;;;;;;15.80;53.89;104098.88;1017127;29;652;-73
2022/03/19 03:20:14;;;;;;;;;;;;;;;15.80;54.07;104093.50;1017096;29;639;-73
2022/03/19 03:21:04;;;;;;;;;;;;;;;15.81;53.96;104103.31;1017652;29;615;-73
2022/03/19 03:21:55;;;;;;;;;;;;;;;15.79;54.49;104097.13;1017063;29;1610;-73
2022/03/19 03:22:45;;;;;;;;;;;;;;;15.79;54.14;104097.13;1017677;29;678;-73
2022/03/19 03:23:36;;;;;;;;;;;;;;;15.79;54.06;104097.13;1017613;29;639;-73
2022/03/19 03:24:26;;;;;;;;;;;;;;;15.79;54.14;104097.13;1017210;29;650;-73
2022/03/19 03:25:17;;;;;;;;;;;;;;;15.79;53.88;104097.13;1017636;29;623;-73
2022/03/19 03:26:08;;;;;;;;;;;;;;;15.79;54.50;104097.13;1017748;29;642;-73
2022/03/19 03:26:58;;;;;;;;;;;;;;;15.78;54.01;104096.25;1017712;29;634;-73
2022/03/19 03:27:49;;;;;;;;;;;;;;;15.79;54.06;104099.81;1017722;29;678;-73
2022/03/19 03:28:40;;;;;;;;;;;;;;;15.79;54.19;104097.13;1017422;29;1895;-73
2022/03/19 03:29:30;;;;;;;;;;;;;;;15.78;54.08;104096.25;1017166;29;682;-72
2022/03/19 03:30:21;;;;;;;;;;;;;;;15.78;54.15;104098.06;1016891;29;1775;-73
2022/03/19 03:31:11;;;;;;;;;;;;;;;15.77;54.12;104098.97;1014380;29;774;-73
2022/03/19 03:32:01;;;;;;;;;;;;;;;15.77;54.33;104101.66;1013766;29;635;-73
2022/03/19 03:32:52;;;;;;;;;;;;;;;15.78;53.96;104100.75;1013750;29;831;-72
2022/03/19 03:33:42;;;;;;;;;;;;;;;15.76;53.97;104099.94;1016786;29;1757;-74
2022/03/19 03:34:33;;;;;;;;;;;;;;;15.76;54.56;104102.63;1017725;29;630;-74
2022/03/19 03:35:25;;;;;;;;;;;;;;;15.76;54.51;104102.63;1017314;29;721;-73
2022/03/19 03:36:16;;;;;;;;;;;;;;;15.76;54.13;104102.63;1016279;29;639;-73
2022/03/19 03:37:06;;;;;;;;;;;;;;;15.75;54.64;104100.88;1017117;29;624;-73
2022/03/19 03:37:57;;;;;;;;;;;;;;;15.74;54.23;104107.19;1017554;29;1582;-73
2022/03/19 03:38:47;;;;;;;;;;;;;;;15.75;54.42;104107.13;1017655;29;647;-73
2022/03/19 03:39:38;;;;;;;;;;;;;;;15.75;53.97;104103.56;1017313;29;774;-73
2022/03/19 03:40:28;;;;;;;;;;;;;;;15.76;54.24;104108.00;1017268;29;694;-73
2022/03/19 03:41:18;;;;;;;;;;;;;;;15.77;54.10;104102.56;1017601;29;632;-73
2022/03/19 03:42:09;;;;;;;;;;;;;;;15.76;54.05;104108.00;1017622;29;618;-73
2022/03/19 03:42:59;;;;;;;;;;;;;;;15.75;54.11;104106.25;1017645;29;737;-74
2022/03/19 03:43:50;;;;;;;;;;;;;;;15.73;54.16;104098.25;1018130;29;1474;-74
2022/03/19 03:44:42;;;;;;;;;;;;;;;15.73;54.16;104102.72;1016907;29;1650;-74
2022/03/19 03:45:32;;;;;;;;;;;;;;;15.74;54.22;104110.75;1016870;29;1569;-74
2022/03/19 03:46:22;;;;;;;;;;;;;;;15.73;54.09;104100.03;1017105;29;678;-74
2022/03/19 03:47:13;;;;;;;;;;;;;;;15.72;54.26;104095.59;1017036;29;626;-74
2022/03/19 03:48:03;;;;;;;;;;;;;;;15.72;54.35;104096.47;1017125;29;655;-74
2022/03/19 03:48:54;;;;;;;;;;;;;;;15.71;54.08;104109.97;1016727;29;687;-73
2022/03/19 03:49:44;;;;;;;;;;;;;;;15.72;54.26;104100.97;1016783;29;753;-74
2022/03/19 03:50:35;;;;;;;;;;;;;;;15.71;54.12;104096.53;1016267;29;1591;-72
2022/03/19 03:51:25;;;;;;;;;;;;;;;15.72;53.97;104103.66;1016429;29;742;-72
2022/03/19 03:52:16;;;;;;;;;;;;;;;15.70;54.51;104098.34;1017180;29;612;-72
2022/03/19 03:53:06;;;;;;;;;;;;;;;15.71;54.20;104093.84;1017119;29;615;-73
2022/03/19 03:53:57;;;;;;;;;;;;;;;15.70;54.21;104094.78;1016932;29;1702;-73
2022/03/19 03:54:47;;;;;;;;;;;;;;;15.71;54.27;104093.84;1017004;29;721;-73
2022/03/19 03:55:38;;;;;;;;;;;;;;;15.70;54.23;104094.78;1017058;29;687;-73
2022/03/19 03:56:29;;;;;;;;;;;;;;;15.69;54.29;104096.56;1017037;29;647;-74
2022/03/19 03:57:20;;;;;;;;;;;;;;;15.68;54.12;104096.63;1017058;29;702;-74
2022/03/19 03:58:11;;;;;;;;;;;;;;;15.69;54.27;104098.38;1017047;29;655;-76
2022/03/19 03:59:01;;;;;;;;;;;;;;;15.69;54.40;104098.38;1017064;29;710;-75
2022/03/19 03:59:52;;;;;;;;;;;;;;;15.69;53.99;104101.97;1017089;29;679;-75
2022/03/19 04:00:43;;;;;;;;;;;;;;;15.67;54.61;104097.56;1013709;29;1408;-75
2022/03/19 04:01:33;;;;;;;;;;;;;;;15.68;54.43;104100.19;1014224;29;661;-73
2022/03/19 04:02:23;;;;;;;;;;;;;;;15.68;54.45;104096.63;1015695;29;1588;-73
2022/03/19 04:03:14;;;;;;;;;;;;;;;15.68;54.53;104099.31;1016978;29;697;-73
2022/03/19 04:04:04;;;;;;;;;;;;;;;15.68;54.44;104093.94;1017014;29;635;-73
2022/03/19 04:04:55;;;;;;;;;;;;;;;15.66;54.54;104094.00;1017104;29;639;-73
2022/03/19 04:05:45;;;;;;;;;;;;;;;15.66;54.32;104103.88;1017424;29;1618;-74
2022/03/19 04:06:35;;;;;;;;;;;;;;;15.66;54.16;104099.38;1017642;29;643;-74
2022/03/19 04:07:27;;;;;;;;;;;;;;;15.65;54.00;104103.00;1017559;29;670;-73
2022/03/19 04:08:17;;;;;;;;;;;;;;;15.65;54.00;104094.03;1016917;29;2213;-74
2022/03/19 04:09:08;;;;;;;;;;;;;;;15.65;54.31;104097.63;1013158;29;612;-74
2022/03/19 04:09:58;;;;;;;;;;;;;;;15.66;54.18;104099.38;1013187;29;631;-75
2022/03/19 04:10:48;;;;;;;;;;;;;;;15.67;54.28;104097.56;1016050;29;1467;-74
2022/03/19 04:11:39;;;;;;;;;;;;;;;15.66;54.37;104093.13;1016979;29;611;-75
2022/03/19 04:12:29;;;;;;;;;;;;;;;15.65;54.40;104091.34;1017056;29;608;-72
2022/03/19 04:13:20;;;;;;;;;;;;;;;15.65;54.38;104094.03;1017075;29;619;-71
2022/03/19 04:14:10;;;;;;;;;;;;;;;15.64;54.18;104098.53;1016895;29;1540;-72
2022/03/19 04:15:01;;;;;;;;;;;;;;;15.63;54.07;104094.09;1016906;29;1611;-72
2022/03/19 04:15:51;;;;;;;;;;;;;;;15.62;54.21;104098.59;1017062;29;634;-73
2022/03/19 04:16:42;;;;;;;;;;;;;;;15.62;54.40;104093.22;1017089;29;686;-73
2022/03/19 04:17:32;;;;;;;;;;;;;;;15.63;54.64;104099.47;1016991;29;627;-73
2022/03/19 04:18:23;;;;;;;;;;;;;;;15.62;54.28;104100.41;1017033;29;639;-73
2022/03/19 04:19:13;;;;;;;;;;;;;;;15.61;53.97;104099.53;1017067;29;682;-73
2022/03/19 04:20:03;;;;;;;;;;;;;;;15.63;54.35;104099.47;1016777;29;1615;-73
2022/03/19 04:20:54;;;;;;;;;;;;;;;15.63;54.74;104094.09;1017030;29;607;-73
2022/03/19 04:21:44;;;;;;;;;;;;;;;15.61;54.27;104087.88;1017066;29;706;-73
2022/03/19 04:22:35;;;;;;;;;;;;;;;15.61;54.53;104093.25;1016978;29;682;-73
2022/03/19 04:23:25;;;;;;;;;;;;;;;15.61;54.07;104090.56;1016964;29;706;-73
2022/03/19 04:24:16;;;;;;;;;;;;;;;15.60;54.12;104097.75;1016657;29;642;-74
2022/03/19 04:25:06;;;;;;;;;;;;;;;15.59;54.40;104087.94;1017813;29;639;-73
2022/03/19 04:25:56;;;;;;;;;;;;;;;15.61;54.21;104095.94;1017000;29;568;-73
2022/03/19 04:26:47;;;;;;;;;;;;;;;15.58;54.41;104099.66;1016999;29;638;-73
2022/03/19 04:27:38;;;;;;;;;;;;;;;15.58;54.50;104094.28;1017037;29;694;-73
2022/03/19 04:28:28;;;;;;;;;;;;;;;15.59;53.88;104095.13;1016988;29;1903;-73